createdAt,value
2018-07-09T00:00:03.191Z,9.656064
2018-07-09T00:00:15.625Z,9.656064
2018-07-09T00:00:28.065Z,9.656064
2018-07-09T00:00:40.475Z,9.656064
2018-07-09T00:00:52.899Z,9.656064
2018-07-09T00:01:05.363Z,8.04672
2018-07-09T00:01:17.776Z,11.265408
2018-07-09T00:01:30.382Z,11.265408
2018-07-09T00:01:42.920Z,11.265408
2018-07-09T00:01:55.349Z,11.265408
2018-07-09T00:02:07.776Z,6.437376
2018-07-09T00:02:20.181Z,8.04672
2018-07-09T00:02:32.590Z,8.04672
2018-07-09T00:02:44.984Z,8.04672
2018-07-09T00:02:57.395Z,9.656064
2018-07-09T00:03:09.816Z,8.04672
2018-07-09T00:03:22.210Z,8.04672
2018-07-09T00:03:34.660Z,9.656064
2018-07-09T00:03:47.041Z,9.656064
2018-07-09T00:03:59.427Z,9.656064
2018-07-09T00:04:11.863Z,3.218688
2018-07-09T00:04:24.288Z,11.265408
2018-07-09T00:04:36.775Z,11.265408
2018-07-09T00:04:49.175Z,11.265408
2018-07-09T00:05:01.571Z,11.265408
2018-07-09T00:05:13.976Z,6.437376
2018-07-09T00:05:26.379Z,9.656064
2018-07-09T00:05:38.771Z,9.656064
2018-07-09T00:05:51.176Z,9.656064
2018-07-09T00:06:03.578Z,3.218688
2018-07-09T00:06:16.322Z,6.437376
2018-07-09T00:06:29.251Z,8.04672
2018-07-09T00:06:41.661Z,8.04672
2018-07-09T00:06:54.069Z,8.04672
2018-07-09T00:07:06.479Z,3.218688
2018-07-09T00:07:18.904Z,3.218688
2018-07-09T00:07:31.291Z,3.218688
2018-07-09T00:07:43.705Z,3.218688
2018-07-09T00:07:56.107Z,3.218688
2018-07-09T00:08:08.493Z,4.828032
2018-07-09T00:08:20.901Z,6.437376
2018-07-09T00:08:33.296Z,6.437376
2018-07-09T00:08:45.713Z,6.437376
2018-07-09T00:08:58.119Z,6.437376
2018-07-09T00:09:10.522Z,3.218688
2018-07-09T00:09:22.923Z,3.218688
2018-07-09T00:09:35.381Z,3.218688
2018-07-09T00:09:47.789Z,12.874752
2018-07-09T00:10:00.187Z,12.874752
2018-07-09T00:10:12.591Z,6.437376
2018-07-09T00:10:24.998Z,8.04672
2018-07-09T00:10:37.400Z,8.04672
2018-07-09T00:10:49.814Z,8.04672
2018-07-09T00:11:02.221Z,8.04672
2018-07-09T00:11:14.621Z,9.656064
2018-07-09T00:11:27.080Z,9.656064
2018-07-09T00:11:39.475Z,9.656064
2018-07-09T00:11:51.884Z,9.656064
2018-07-09T00:12:04.284Z,8.04672
2018-07-09T00:12:16.685Z,8.04672
2018-07-09T00:12:29.111Z,8.04672
2018-07-09T00:12:41.515Z,8.04672
2018-07-09T00:12:53.914Z,8.04672
2018-07-09T00:13:06.314Z,8.04672
2018-07-09T00:13:18.720Z,11.265408
2018-07-09T00:13:31.138Z,12.874752
2018-07-09T00:13:43.619Z,12.874752
2018-07-09T00:13:56.020Z,12.874752
2018-07-09T00:14:08.452Z,8.04672
2018-07-09T00:14:20.897Z,8.04672
2018-07-09T00:14:33.319Z,8.04672
2018-07-09T00:14:45.713Z,9.656064
2018-07-09T00:14:58.123Z,9.656064
2018-07-09T00:15:10.542Z,9.656064
2018-07-09T00:15:22.951Z,9.656064
2018-07-09T00:15:35.364Z,9.656064
2018-07-09T00:15:47.749Z,9.656064
2018-07-09T00:16:00.151Z,9.656064
2018-07-09T00:16:12.653Z,6.437376
2018-07-09T00:16:25.053Z,8.04672
2018-07-09T00:16:37.594Z,8.04672
2018-07-09T00:16:49.992Z,8.04672
2018-07-09T00:17:02.478Z,8.04672
2018-07-09T00:17:14.892Z,9.656064
2018-07-09T00:17:27.309Z,9.656064
2018-07-09T00:17:39.726Z,9.656064
2018-07-09T00:17:52.144Z,9.656064
2018-07-09T00:18:04.555Z,9.656064
2018-07-09T00:18:16.966Z,9.656064
2018-07-09T00:18:29.370Z,9.656064
2018-07-09T00:18:41.767Z,9.656064
2018-07-09T00:18:54.175Z,9.656064
2018-07-09T00:19:06.584Z,1.609344
2018-07-09T00:19:18.989Z,4.828032
2018-07-09T00:19:31.419Z,6.437376
2018-07-09T00:19:43.833Z,6.437376
2018-07-09T00:19:56.275Z,6.437376
2018-07-09T00:20:08.695Z,8.04672
2018-07-09T00:20:21.095Z,8.04672
2018-07-09T00:20:33.505Z,8.04672
2018-07-09T00:20:45.922Z,8.04672
2018-07-09T00:20:58.329Z,8.04672
2018-07-09T00:21:10.748Z,8.04672
2018-07-09T00:21:23.160Z,9.656064
2018-07-09T00:21:35.546Z,9.656064
2018-07-09T00:21:47.934Z,9.656064
2018-07-09T00:22:00.412Z,9.656064
2018-07-09T00:22:12.811Z,3.218688
2018-07-09T00:22:25.209Z,6.437376
2018-07-09T00:22:37.618Z,8.04672
2018-07-09T00:22:50.023Z,8.04672
2018-07-09T00:23:02.426Z,8.04672
2018-07-09T00:23:14.831Z,4.828032
2018-07-09T00:23:27.240Z,6.437376
2018-07-09T00:23:39.644Z,6.437376
2018-07-09T00:23:52.048Z,6.437376
2018-07-09T00:24:04.455Z,6.437376
2018-07-09T00:24:16.855Z,6.437376
2018-07-09T00:24:29.256Z,8.04672
2018-07-09T00:24:41.663Z,8.04672
2018-07-09T00:24:54.068Z,8.04672
2018-07-09T00:25:06.480Z,1.609344
2018-07-09T00:25:18.913Z,8.04672
2018-07-09T00:25:31.319Z,8.04672
2018-07-09T00:25:43.713Z,8.04672
2018-07-09T00:25:56.128Z,8.04672
2018-07-09T00:26:08.536Z,6.437376
2018-07-09T00:26:20.925Z,6.437376
2018-07-09T00:26:33.433Z,9.656064
2018-07-09T00:26:45.835Z,12.874752
2018-07-09T00:26:58.233Z,12.874752
2018-07-09T00:27:10.687Z,6.437376
2018-07-09T00:27:23.073Z,8.04672
2018-07-09T00:27:35.467Z,8.04672
2018-07-09T00:27:47.879Z,8.04672
2018-07-09T00:28:00.293Z,8.04672
2018-07-09T00:28:12.700Z,8.04672
2018-07-09T00:28:25.101Z,8.04672
2018-07-09T00:28:37.527Z,8.04672
2018-07-09T00:28:49.921Z,8.04672
2018-07-09T00:29:02.328Z,8.04672
2018-07-09T00:29:14.746Z,3.218688
2018-07-09T00:29:27.137Z,3.218688
2018-07-09T00:29:39.541Z,3.218688
2018-07-09T00:29:51.990Z,6.437376
2018-07-09T00:30:04.392Z,8.04672
2018-07-09T00:30:16.838Z,11.265408
2018-07-09T00:30:29.229Z,11.265408
2018-07-09T00:30:41.637Z,11.265408
2018-07-09T00:30:54.098Z,11.265408
2018-07-09T00:31:06.493Z,8.04672
2018-07-09T00:31:18.887Z,11.265408
2018-07-09T00:31:31.356Z,11.265408
2018-07-09T00:31:43.762Z,11.265408
2018-07-09T00:31:56.167Z,11.265408
2018-07-09T00:32:08.583Z,6.437376
2018-07-09T00:32:21.431Z,6.437376
2018-07-09T00:32:34.255Z,6.437376
2018-07-09T00:32:46.667Z,6.437376
2018-07-09T00:32:59.082Z,6.437376
2018-07-09T00:33:11.511Z,12.874752
2018-07-09T00:33:23.923Z,12.874752
2018-07-09T00:33:36.326Z,12.874752
2018-07-09T00:33:48.730Z,12.874752
2018-07-09T00:34:01.145Z,12.874752
2018-07-09T00:34:13.558Z,4.828032
2018-07-09T00:34:25.970Z,6.437376
2018-07-09T00:34:38.378Z,6.437376
2018-07-09T00:34:50.826Z,6.437376
2018-07-09T00:35:03.225Z,8.04672
2018-07-09T00:35:15.622Z,8.04672
2018-07-09T00:35:28.025Z,8.04672
2018-07-09T00:35:40.420Z,8.04672
2018-07-09T00:35:52.861Z,8.04672
2018-07-09T00:36:05.255Z,3.218688
2018-07-09T00:36:17.656Z,6.437376
2018-07-09T00:36:30.148Z,6.437376
2018-07-09T00:36:42.561Z,8.04672
2018-07-09T00:36:54.954Z,8.04672
2018-07-09T00:37:07.363Z,8.04672
2018-07-09T00:37:19.755Z,9.656064
2018-07-09T00:37:32.146Z,9.656064
2018-07-09T00:37:44.662Z,9.656064
2018-07-09T00:37:57.062Z,9.656064
2018-07-09T00:38:09.455Z,3.218688
2018-07-09T00:38:21.847Z,3.218688
2018-07-09T00:38:34.250Z,4.828032
2018-07-09T00:38:46.641Z,4.828032
2018-07-09T00:38:59.039Z,4.828032
2018-07-09T00:39:11.501Z,1.609344
2018-07-09T00:39:23.898Z,1.609344
2018-07-09T00:39:36.337Z,1.609344
2018-07-09T00:39:48.726Z,4.828032
2018-07-09T00:40:01.169Z,8.04672
2018-07-09T00:40:13.574Z,8.04672
2018-07-09T00:40:25.983Z,8.04672
2018-07-09T00:40:38.398Z,8.04672
2018-07-09T00:40:50.817Z,8.04672
2018-07-09T00:41:03.232Z,1.609344
2018-07-09T00:41:15.680Z,3.218688
2018-07-09T00:41:28.155Z,3.218688
2018-07-09T00:41:40.561Z,3.218688
2018-07-09T00:41:52.960Z,3.218688
2018-07-09T00:42:05.357Z,6.437376
2018-07-09T00:42:17.754Z,8.04672
2018-07-09T00:42:30.149Z,8.04672
2018-07-09T00:42:42.550Z,8.04672
2018-07-09T00:42:54.955Z,8.04672
2018-07-09T00:43:07.363Z,3.218688
2018-07-09T00:43:19.763Z,6.437376
2018-07-09T00:43:32.186Z,8.04672
2018-07-09T00:43:44.600Z,8.04672
2018-07-09T00:43:57.160Z,8.04672
2018-07-09T00:44:09.561Z,4.828032
2018-07-09T00:44:21.949Z,4.828032
2018-07-09T00:44:34.377Z,8.04672
2018-07-09T00:44:46.774Z,8.04672
2018-07-09T00:44:59.164Z,9.656064
2018-07-09T00:45:11.570Z,8.04672
2018-07-09T00:45:23.980Z,8.04672
2018-07-09T00:45:36.394Z,8.04672
2018-07-09T00:45:48.825Z,8.04672
2018-07-09T00:46:01.230Z,8.04672
2018-07-09T00:46:13.641Z,3.218688
2018-07-09T00:46:26.044Z,3.218688
2018-07-09T00:46:38.536Z,9.656064
2018-07-09T00:46:50.958Z,9.656064
2018-07-09T00:47:03.665Z,8.04672
2018-07-09T00:47:16.073Z,8.04672
2018-07-09T00:47:28.480Z,11.265408
2018-07-09T00:47:40.905Z,11.265408
2018-07-09T00:47:53.290Z,11.265408
2018-07-09T00:48:05.716Z,4.828032
2018-07-09T00:48:18.131Z,4.828032
2018-07-09T00:48:30.542Z,4.828032
2018-07-09T00:48:43.160Z,8.04672
2018-07-09T00:48:55.555Z,8.04672
2018-07-09T00:49:07.949Z,6.437376
2018-07-09T00:49:20.341Z,6.437376
2018-07-09T00:49:32.737Z,6.437376
2018-07-09T00:49:45.131Z,6.437376
2018-07-09T00:49:57.541Z,6.437376
2018-07-09T00:50:09.942Z,1.609344
2018-07-09T00:50:22.344Z,1.609344
2018-07-09T00:50:34.755Z,3.218688
2018-07-09T00:50:47.240Z,3.218688
2018-07-09T00:51:00.066Z,3.218688
2018-07-09T00:51:13.148Z,3.218688
2018-07-09T00:51:25.547Z,3.218688
2018-07-09T00:51:37.945Z,3.218688
2018-07-09T00:51:50.359Z,3.218688
2018-07-09T00:52:02.766Z,3.218688
2018-07-09T00:52:15.182Z,1.609344
2018-07-09T00:52:27.576Z,1.609344
2018-07-09T00:52:39.978Z,1.609344
2018-07-09T00:52:52.441Z,3.218688
2018-07-09T00:53:04.857Z,3.218688
2018-07-09T00:53:17.284Z,3.218688
2018-07-09T00:53:29.705Z,3.218688
2018-07-09T00:53:42.186Z,3.218688
2018-07-09T00:53:54.712Z,3.218688
2018-07-09T00:54:07.119Z,1.609344
2018-07-09T00:54:19.536Z,3.218688
2018-07-09T00:54:31.949Z,3.218688
2018-07-09T00:54:44.355Z,3.218688
2018-07-09T00:54:56.895Z,3.218688
2018-07-09T00:55:09.297Z,3.218688
2018-07-09T00:55:21.703Z,3.218688
2018-07-09T00:55:34.104Z,3.218688
2018-07-09T00:55:46.514Z,3.218688
2018-07-09T00:55:58.995Z,3.218688
2018-07-09T00:56:11.390Z,3.218688
2018-07-09T00:56:23.793Z,3.218688
2018-07-09T00:56:36.201Z,3.218688
2018-07-09T00:56:48.598Z,3.218688
2018-07-09T00:57:01.006Z,3.218688
2018-07-09T00:57:13.419Z,1.609344
2018-07-09T00:57:25.807Z,1.609344
2018-07-09T00:57:38.210Z,1.609344
2018-07-09T00:57:50.599Z,1.609344
2018-07-09T00:58:02.989Z,1.609344
2018-07-09T00:58:15.409Z,4.828032
2018-07-09T00:58:27.813Z,4.828032
2018-07-09T00:58:40.216Z,4.828032
2018-07-09T00:58:52.627Z,4.828032
2018-07-09T00:59:05.025Z,0
2018-07-09T00:59:17.451Z,3.218688
2018-07-09T00:59:29.896Z,3.218688
2018-07-09T00:59:42.296Z,3.218688
2018-07-09T00:59:54.707Z,3.218688
2018-07-09T01:00:07.139Z,6.437376
2018-07-09T01:00:19.584Z,6.437376
2018-07-09T01:00:32.053Z,6.437376
2018-07-09T01:00:44.528Z,6.437376
2018-07-09T01:00:56.930Z,6.437376
2018-07-09T01:01:09.359Z,1.609344
2018-07-09T01:01:21.775Z,3.218688
2018-07-09T01:01:34.474Z,3.218688
2018-07-09T01:01:47.011Z,6.437376
2018-07-09T01:01:59.430Z,6.437376
2018-07-09T01:02:11.887Z,4.828032
2018-07-09T01:02:24.294Z,6.437376
2018-07-09T01:02:36.733Z,6.437376
2018-07-09T01:02:49.163Z,6.437376
2018-07-09T01:03:01.589Z,6.437376
2018-07-09T01:03:14.012Z,6.437376
2018-07-09T01:03:26.470Z,6.437376
2018-07-09T01:03:38.897Z,6.437376
2018-07-09T01:03:51.345Z,6.437376
2018-07-09T01:04:03.761Z,3.218688
2018-07-09T01:04:16.192Z,3.218688
2018-07-09T01:04:28.640Z,3.218688
2018-07-09T01:04:41.048Z,4.828032
2018-07-09T01:04:53.462Z,6.437376
2018-07-09T01:05:05.911Z,3.218688
2018-07-09T01:05:18.319Z,3.218688
2018-07-09T01:05:30.745Z,3.218688
2018-07-09T01:05:43.168Z,3.218688
2018-07-09T01:05:55.582Z,4.828032
2018-07-09T01:06:08.022Z,8.04672
2018-07-09T01:06:20.442Z,8.04672
2018-07-09T01:06:32.836Z,8.04672
2018-07-09T01:06:45.313Z,8.04672
2018-07-09T01:06:57.703Z,8.04672
2018-07-09T01:07:10.102Z,6.437376
2018-07-09T01:07:22.499Z,6.437376
2018-07-09T01:07:34.902Z,6.437376
2018-07-09T01:07:47.314Z,6.437376
2018-07-09T01:07:59.711Z,6.437376
2018-07-09T01:08:12.146Z,6.437376
2018-07-09T01:08:24.559Z,6.437376
2018-07-09T01:08:36.985Z,6.437376
2018-07-09T01:08:49.386Z,6.437376
2018-07-09T01:09:01.784Z,6.437376
2018-07-09T01:09:14.194Z,8.04672
2018-07-09T01:09:26.598Z,8.04672
2018-07-09T01:09:39.008Z,8.04672
2018-07-09T01:09:51.403Z,8.04672
2018-07-09T01:10:03.812Z,6.437376
2018-07-09T01:10:16.202Z,8.04672
2018-07-09T01:10:28.615Z,9.656064
2018-07-09T01:10:41.052Z,11.265408
2018-07-09T01:10:53.472Z,11.265408
2018-07-09T01:11:06.253Z,9.656064
2018-07-09T01:11:19.395Z,9.656064
2018-07-09T01:11:31.811Z,9.656064
2018-07-09T01:11:44.271Z,9.656064
2018-07-09T01:11:56.685Z,9.656064
2018-07-09T01:12:09.125Z,3.218688
2018-07-09T01:12:21.528Z,3.218688
2018-07-09T01:12:33.967Z,8.04672
2018-07-09T01:12:46.387Z,8.04672
2018-07-09T01:12:58.788Z,8.04672
2018-07-09T01:13:11.200Z,6.437376
2018-07-09T01:13:23.591Z,8.04672
2018-07-09T01:13:35.987Z,8.04672
2018-07-09T01:13:48.532Z,8.04672
2018-07-09T01:14:00.934Z,9.656064
2018-07-09T01:14:13.338Z,4.828032
2018-07-09T01:14:25.761Z,4.828032
2018-07-09T01:14:38.171Z,6.437376
2018-07-09T01:14:50.570Z,6.437376
2018-07-09T01:15:03.119Z,6.437376
2018-07-09T01:15:15.522Z,8.04672
2018-07-09T01:15:27.918Z,8.04672
2018-07-09T01:15:40.318Z,8.04672
2018-07-09T01:15:52.720Z,8.04672
2018-07-09T01:16:05.117Z,6.437376
2018-07-09T01:16:17.529Z,6.437376
2018-07-09T01:16:29.919Z,6.437376
2018-07-09T01:16:42.382Z,6.437376
2018-07-09T01:16:54.788Z,6.437376
2018-07-09T01:17:07.203Z,1.609344
2018-07-09T01:17:19.596Z,1.609344
2018-07-09T01:17:32.204Z,1.609344
2018-07-09T01:17:44.625Z,3.218688
2018-07-09T01:17:57.062Z,3.218688
2018-07-09T01:18:09.469Z,1.609344
2018-07-09T01:18:21.878Z,3.218688
2018-07-09T01:18:34.285Z,4.828032
2018-07-09T01:18:46.699Z,4.828032
2018-07-09T01:18:59.095Z,4.828032
2018-07-09T01:19:11.533Z,3.218688
2018-07-09T01:19:23.922Z,3.218688
2018-07-09T01:19:36.321Z,3.218688
2018-07-09T01:19:48.711Z,3.218688
2018-07-09T01:20:01.122Z,3.218688
2018-07-09T01:20:13.575Z,1.609344
2018-07-09T01:20:26.573Z,3.218688
2018-07-09T01:20:39.385Z,3.218688
2018-07-09T01:20:51.835Z,3.218688
2018-07-09T01:21:04.230Z,1.609344
2018-07-09T01:21:16.636Z,6.437376
2018-07-09T01:21:29.025Z,6.437376
2018-07-09T01:21:41.425Z,6.437376
2018-07-09T01:21:53.827Z,6.437376
2018-07-09T01:22:06.227Z,6.437376
2018-07-09T01:22:18.624Z,6.437376
2018-07-09T01:22:31.077Z,6.437376
2018-07-09T01:22:43.469Z,6.437376
2018-07-09T01:22:55.869Z,6.437376
2018-07-09T01:23:08.266Z,3.218688
2018-07-09T01:23:20.658Z,3.218688
2018-07-09T01:23:33.062Z,3.218688
2018-07-09T01:23:45.483Z,3.218688
2018-07-09T01:23:57.882Z,3.218688
2018-07-09T01:24:10.295Z,1.609344
2018-07-09T01:24:22.725Z,1.609344
2018-07-09T01:24:35.119Z,1.609344
2018-07-09T01:24:47.523Z,1.609344
2018-07-09T01:24:59.933Z,1.609344
2018-07-09T01:25:12.353Z,1.609344
2018-07-09T01:25:24.744Z,3.218688
2018-07-09T01:25:37.142Z,3.218688
2018-07-09T01:25:49.546Z,3.218688
2018-07-09T01:26:01.939Z,3.218688
2018-07-09T01:26:14.338Z,1.609344
2018-07-09T01:26:26.740Z,3.218688
2018-07-09T01:26:39.138Z,3.218688
2018-07-09T01:26:51.538Z,3.218688
2018-07-09T01:27:03.953Z,0
2018-07-09T01:27:16.358Z,1.609344
2018-07-09T01:27:28.868Z,1.609344
2018-07-09T01:27:41.278Z,1.609344
2018-07-09T01:27:53.698Z,1.609344
2018-07-09T01:28:06.104Z,0
2018-07-09T01:28:18.513Z,1.609344
2018-07-09T01:28:30.924Z,1.609344
2018-07-09T01:28:43.325Z,1.609344
2018-07-09T01:28:55.729Z,1.609344
2018-07-09T01:29:08.132Z,1.609344
2018-07-09T01:29:20.533Z,1.609344
2018-07-09T01:29:32.919Z,1.609344
2018-07-09T01:29:45.312Z,1.609344
2018-07-09T01:29:57.724Z,1.609344
2018-07-09T01:30:10.124Z,1.609344
2018-07-09T01:30:22.538Z,1.609344
2018-07-09T01:30:34.926Z,1.609344
2018-07-09T01:30:47.344Z,3.218688
2018-07-09T01:30:59.745Z,3.218688
2018-07-09T01:31:12.140Z,3.218688
2018-07-09T01:31:24.561Z,3.218688
2018-07-09T01:31:36.961Z,3.218688
2018-07-09T01:31:49.366Z,3.218688
2018-07-09T01:32:01.780Z,3.218688
2018-07-09T01:32:14.179Z,3.218688
2018-07-09T01:32:26.583Z,3.218688
2018-07-09T01:32:39.032Z,3.218688
2018-07-09T01:32:51.462Z,3.218688
2018-07-09T01:33:03.859Z,1.609344
2018-07-09T01:33:16.262Z,3.218688
2018-07-09T01:33:28.669Z,3.218688
2018-07-09T01:33:41.069Z,3.218688
2018-07-09T01:33:53.490Z,3.218688
2018-07-09T01:34:05.910Z,1.609344
2018-07-09T01:34:18.313Z,1.609344
2018-07-09T01:34:30.723Z,1.609344
2018-07-09T01:34:43.176Z,1.609344
2018-07-09T01:34:55.580Z,1.609344
2018-07-09T01:35:07.980Z,3.218688
2018-07-09T01:35:20.412Z,3.218688
2018-07-09T01:35:32.819Z,3.218688
2018-07-09T01:35:45.243Z,3.218688
2018-07-09T01:35:57.655Z,3.218688
2018-07-09T01:36:10.042Z,3.218688
2018-07-09T01:36:22.465Z,3.218688
2018-07-09T01:36:34.859Z,3.218688
2018-07-09T01:36:47.257Z,3.218688
2018-07-09T01:36:59.669Z,3.218688
2018-07-09T01:37:12.068Z,3.218688
2018-07-09T01:37:24.490Z,3.218688
2018-07-09T01:37:36.921Z,3.218688
2018-07-09T01:37:49.452Z,3.218688
2018-07-09T01:38:01.856Z,3.218688
2018-07-09T01:38:14.260Z,1.609344
2018-07-09T01:38:26.665Z,1.609344
2018-07-09T01:38:39.063Z,1.609344
2018-07-09T01:38:51.497Z,1.609344
2018-07-09T01:39:03.909Z,1.609344
2018-07-09T01:39:16.300Z,1.609344
2018-07-09T01:39:28.718Z,3.218688
2018-07-09T01:39:41.117Z,3.218688
2018-07-09T01:39:53.523Z,3.218688
2018-07-09T01:40:05.928Z,1.609344
2018-07-09T01:40:18.344Z,1.609344
2018-07-09T01:40:30.750Z,1.609344
2018-07-09T01:40:43.140Z,1.609344
2018-07-09T01:40:55.553Z,1.609344
2018-07-09T01:41:07.976Z,1.609344
2018-07-09T01:41:20.381Z,3.218688
2018-07-09T01:41:32.819Z,4.828032
2018-07-09T01:41:45.224Z,6.437376
2018-07-09T01:41:57.632Z,8.04672
2018-07-09T01:42:10.039Z,6.437376
2018-07-09T01:42:22.439Z,6.437376
2018-07-09T01:42:34.827Z,6.437376
2018-07-09T01:42:47.273Z,6.437376
2018-07-09T01:42:59.691Z,6.437376
2018-07-09T01:43:12.104Z,3.218688
2018-07-09T01:43:24.504Z,6.437376
2018-07-09T01:43:36.903Z,9.656064
2018-07-09T01:43:49.312Z,9.656064
2018-07-09T01:44:01.937Z,9.656064
2018-07-09T01:44:14.331Z,4.828032
2018-07-09T01:44:26.761Z,6.437376
2018-07-09T01:44:39.166Z,6.437376
2018-07-09T01:44:51.572Z,6.437376
2018-07-09T01:45:03.981Z,1.609344
2018-07-09T01:45:16.375Z,1.609344
2018-07-09T01:45:28.764Z,3.218688
2018-07-09T01:45:41.167Z,6.437376
2018-07-09T01:45:53.564Z,8.04672
2018-07-09T01:46:05.971Z,6.437376
2018-07-09T01:46:18.387Z,6.437376
2018-07-09T01:46:30.782Z,8.04672
2018-07-09T01:46:43.367Z,8.04672
2018-07-09T01:46:55.761Z,8.04672
2018-07-09T01:47:08.595Z,8.04672
2018-07-09T01:47:20.986Z,8.04672
2018-07-09T01:47:33.439Z,8.04672
2018-07-09T01:47:45.849Z,8.04672
2018-07-09T01:47:58.243Z,8.04672
2018-07-09T01:48:10.645Z,3.218688
2018-07-09T01:48:23.048Z,8.04672
2018-07-09T01:48:35.444Z,8.04672
2018-07-09T01:48:48.021Z,8.04672
2018-07-09T01:49:00.409Z,8.04672
2018-07-09T01:49:12.819Z,6.437376
2018-07-09T01:49:25.222Z,6.437376
2018-07-09T01:49:37.629Z,6.437376
2018-07-09T01:49:50.034Z,6.437376
2018-07-09T01:50:02.442Z,6.437376
2018-07-09T01:50:14.871Z,4.828032
2018-07-09T01:50:27.310Z,4.828032
2018-07-09T01:50:39.733Z,6.437376
2018-07-09T01:50:52.117Z,6.437376
2018-07-09T01:51:04.520Z,3.218688
2018-07-09T01:51:16.916Z,6.437376
2018-07-09T01:51:29.309Z,6.437376
2018-07-09T01:51:41.700Z,6.437376
2018-07-09T01:51:54.103Z,6.437376
2018-07-09T01:52:06.508Z,9.656064
2018-07-09T01:52:18.900Z,9.656064
2018-07-09T01:52:31.410Z,9.656064
2018-07-09T01:52:43.826Z,9.656064
2018-07-09T01:52:56.231Z,9.656064
2018-07-09T01:53:08.796Z,4.828032
2018-07-09T01:53:21.206Z,4.828032
2018-07-09T01:53:33.602Z,4.828032
2018-07-09T01:53:46.010Z,4.828032
2018-07-09T01:53:58.555Z,6.437376
2018-07-09T01:54:10.964Z,9.656064
2018-07-09T01:54:23.359Z,9.656064
2018-07-09T01:54:35.756Z,9.656064
2018-07-09T01:54:48.148Z,9.656064
2018-07-09T01:55:00.544Z,9.656064
2018-07-09T01:55:12.970Z,1.609344
2018-07-09T01:55:25.362Z,8.04672
2018-07-09T01:55:37.755Z,8.04672
2018-07-09T01:55:50.149Z,8.04672
2018-07-09T01:56:02.549Z,8.04672
2018-07-09T01:56:15.000Z,9.656064
2018-07-09T01:56:27.403Z,9.656064
2018-07-09T01:56:39.806Z,9.656064
2018-07-09T01:56:52.222Z,9.656064
2018-07-09T01:57:04.621Z,6.437376
2018-07-09T01:57:17.025Z,6.437376
2018-07-09T01:57:29.420Z,6.437376
2018-07-09T01:57:41.837Z,6.437376
2018-07-09T01:57:54.245Z,6.437376
2018-07-09T01:58:06.654Z,1.609344
2018-07-09T01:58:19.060Z,1.609344
2018-07-09T01:58:31.469Z,3.218688
2018-07-09T01:58:43.871Z,8.04672
2018-07-09T01:58:56.299Z,8.04672
2018-07-09T01:59:08.695Z,6.437376
2018-07-09T01:59:21.100Z,8.04672
2018-07-09T01:59:33.487Z,8.04672
2018-07-09T01:59:45.879Z,8.04672
2018-07-09T01:59:58.278Z,8.04672
2018-07-09T02:00:10.697Z,9.656064
2018-07-09T02:00:23.127Z,9.656064
2018-07-09T02:00:35.568Z,9.656064
2018-07-09T02:00:47.998Z,9.656064
2018-07-09T02:01:00.416Z,9.656064
2018-07-09T02:01:12.796Z,6.437376
2018-07-09T02:01:25.275Z,6.437376
2018-07-09T02:01:37.871Z,6.437376
2018-07-09T02:01:50.263Z,6.437376
2018-07-09T02:02:02.672Z,8.04672
2018-07-09T02:02:15.059Z,6.437376
2018-07-09T02:02:27.526Z,6.437376
2018-07-09T02:02:39.933Z,6.437376
2018-07-09T02:02:52.336Z,6.437376
2018-07-09T02:03:04.743Z,6.437376
2018-07-09T02:03:17.147Z,8.04672
2018-07-09T02:03:29.564Z,8.04672
2018-07-09T02:03:41.971Z,8.04672
2018-07-09T02:03:54.398Z,8.04672
2018-07-09T02:04:06.818Z,3.218688
2018-07-09T02:04:19.248Z,4.828032
2018-07-09T02:04:31.649Z,6.437376
2018-07-09T02:04:44.065Z,6.437376
2018-07-09T02:04:56.470Z,6.437376
2018-07-09T02:05:08.879Z,6.437376
2018-07-09T02:05:21.303Z,6.437376
2018-07-09T02:05:33.704Z,8.04672
2018-07-09T02:05:46.113Z,11.265408
2018-07-09T02:05:58.524Z,11.265408
2018-07-09T02:06:10.954Z,9.656064
2018-07-09T02:06:23.374Z,9.656064
2018-07-09T02:06:35.783Z,9.656064
2018-07-09T02:06:48.261Z,9.656064
2018-07-09T02:07:00.657Z,11.265408
2018-07-09T02:07:13.062Z,12.874752
2018-07-09T02:07:25.465Z,12.874752
2018-07-09T02:07:37.873Z,12.874752
2018-07-09T02:07:50.282Z,12.874752
2018-07-09T02:08:02.670Z,12.874752
2018-07-09T02:08:15.055Z,9.656064
2018-07-09T02:08:27.446Z,9.656064
2018-07-09T02:08:39.842Z,9.656064
2018-07-09T02:08:52.242Z,9.656064
2018-07-09T02:09:04.654Z,4.828032
2018-07-09T02:09:17.048Z,4.828032
2018-07-09T02:09:29.457Z,4.828032
2018-07-09T02:09:41.874Z,4.828032
2018-07-09T02:09:54.292Z,4.828032
2018-07-09T02:10:06.708Z,3.218688
2018-07-09T02:10:19.112Z,3.218688
2018-07-09T02:10:31.513Z,3.218688
2018-07-09T02:10:43.922Z,3.218688
2018-07-09T02:10:56.394Z,4.828032
2018-07-09T02:11:08.778Z,4.828032
2018-07-09T02:11:21.184Z,4.828032
2018-07-09T02:11:33.583Z,4.828032
2018-07-09T02:11:46.022Z,4.828032
2018-07-09T02:11:58.425Z,6.437376
2018-07-09T02:12:10.823Z,4.828032
2018-07-09T02:12:23.242Z,9.656064
2018-07-09T02:12:35.648Z,9.656064
2018-07-09T02:12:48.033Z,9.656064
2018-07-09T02:13:00.439Z,9.656064
2018-07-09T02:13:12.834Z,6.437376
2018-07-09T02:13:25.256Z,8.04672
2018-07-09T02:13:37.664Z,8.04672
2018-07-09T02:13:50.060Z,11.265408
2018-07-09T02:14:02.445Z,11.265408
2018-07-09T02:14:14.841Z,11.265408
2018-07-09T02:14:27.266Z,12.874752
2018-07-09T02:14:39.657Z,12.874752
2018-07-09T02:14:52.064Z,12.874752
2018-07-09T02:15:04.472Z,8.04672
2018-07-09T02:15:17.051Z,9.656064
2018-07-09T02:15:29.466Z,9.656064
2018-07-09T02:15:42.051Z,12.874752
2018-07-09T02:15:54.469Z,12.874752
2018-07-09T02:16:06.876Z,9.656064
2018-07-09T02:16:19.337Z,9.656064
2018-07-09T02:16:31.906Z,9.656064
2018-07-09T02:16:44.303Z,9.656064
2018-07-09T02:16:56.740Z,9.656064
2018-07-09T02:17:09.137Z,8.04672
2018-07-09T02:17:21.533Z,8.04672
2018-07-09T02:17:33.932Z,9.656064
2018-07-09T02:17:46.356Z,9.656064
2018-07-09T02:17:58.750Z,12.874752
2018-07-09T02:18:11.341Z,11.265408
2018-07-09T02:18:23.741Z,11.265408
2018-07-09T02:18:36.135Z,11.265408
2018-07-09T02:18:48.550Z,11.265408
2018-07-09T02:19:00.995Z,11.265408
2018-07-09T02:19:13.410Z,8.04672
2018-07-09T02:19:25.811Z,8.04672
2018-07-09T02:19:38.216Z,8.04672
2018-07-09T02:19:50.614Z,8.04672
2018-07-09T02:20:03.097Z,1.609344
2018-07-09T02:20:15.494Z,3.218688
2018-07-09T02:20:28.114Z,4.828032
2018-07-09T02:20:41.396Z,9.656064
2018-07-09T02:20:53.807Z,9.656064
2018-07-09T02:21:06.217Z,9.656064
2018-07-09T02:21:18.665Z,9.656064
2018-07-09T02:21:31.097Z,9.656064
2018-07-09T02:21:43.494Z,9.656064
2018-07-09T02:21:55.895Z,9.656064
2018-07-09T02:22:08.291Z,8.04672
2018-07-09T02:22:20.701Z,9.656064
2018-07-09T02:22:33.121Z,9.656064
2018-07-09T02:22:45.525Z,9.656064
2018-07-09T02:22:57.908Z,9.656064
2018-07-09T02:23:10.332Z,8.04672
2018-07-09T02:23:22.778Z,8.04672
2018-07-09T02:23:35.171Z,8.04672
2018-07-09T02:23:47.575Z,8.04672
2018-07-09T02:24:00.013Z,9.656064
2018-07-09T02:24:12.433Z,6.437376
2018-07-09T02:24:24.832Z,6.437376
2018-07-09T02:24:37.233Z,8.04672
2018-07-09T02:24:49.637Z,9.656064
2018-07-09T02:25:02.037Z,9.656064
2018-07-09T02:25:14.449Z,8.04672
2018-07-09T02:25:26.842Z,8.04672
2018-07-09T02:25:39.249Z,8.04672
2018-07-09T02:25:51.658Z,8.04672
2018-07-09T02:26:04.068Z,4.828032
2018-07-09T02:26:16.468Z,4.828032
2018-07-09T02:26:28.864Z,6.437376